sensor_id;sensor_type;location;lat;lon;timestamp;temperature;humidity
8633;DHT22;4354;49.832;10.746;2023-03-01T00:01:06;-3.50;99.90
8633;DHT22;4354;49.832;10.746;2023-03-01T00:03:33;-3.50;99.90
8633;DHT22;4354;49.832;10.746;2023-03-01T00:06:01;-3.50;99.90
8633;DHT22;4354;49.832;10.746;2023-03-01T00:08:28;-3.50;99.90
8633;DHT22;4354;49.832;10.746;2023-03-01T00:13:41;-3.50;99.90
8633;DHT22;4354;49.832;10.746;2023-03-01T00:16:11;-3.50;99.90
8633;DHT22;4354;49.832;10.746;2023-03-01T00:18:39;-3.50;99.90
8633;DHT22;4354;49.832;10.746;2023-03-01T00:21:06;-3.50;99.90
8633;DHT22;4354;49.832;10.746;2023-03-01T00:23:37;-3.50;99.90
8633;DHT22;4354;49.832;10.746;2023-03-01T00:26:09;-3.60;99.90
8633;DHT22;4354;49.832;10.746;2023-03-01T00:28:36;-3.60;99.90
8633;DHT22;4354;49.832;10.746;2023-03-01T00:33:31;-3.60;99.90
8633;DHT22;4354;49.832;10.746;2023-03-01T00:35:59;-3.60;99.90
8633;DHT22;4354;49.832;10.746;2023-03-01T00:38:27;-3.60;99.90
8633;DHT22;4354;49.832;10.746;2023-03-01T00:40:53;-3.60;99.90
8633;DHT22;4354;49.832;10.746;2023-03-01T00:43:21;-3.60;99.90
8633;DHT22;4354;49.832;10.746;2023-03-01T00:45:47;-3.60;99.90
8633;DHT22;4354;49.832;10.746;2023-03-01T00:48:14;-3.60;99.90
8633;DHT22;4354;49.832;10.746;2023-03-01T00:50:41;-3.70;99.90
8633;DHT22;4354;49.832;10.746;2023-03-01T00:53:08;-3.60;99.90
8633;DHT22;4354;49.832;10.746;2023-03-01T00:55:36;-3.70;99.90
8633;DHT22;4354;49.832;10.746;2023-03-01T00:58:03;-3.70;99.90
8633;DHT22;4354;49.832;10.746;2023-03-01T01:00:29;-3.70;99.90
8633;DHT22;4354;49.832;10.746;2023-03-01T01:02:56;-3.80;99.90
8633;DHT22;4354;49.832;10.746;2023-03-01T01:05:23;-3.70;99.90
8633;DHT22;4354;49.832;10.746;2023-03-01T01:07:49;-3.70;99.90
8633;DHT22;4354;49.832;10.746;2023-03-01T01:10:16;-3.70;99.90
8633;DHT22;4354;49.832;10.746;2023-03-01T01:12:45;-3.70;99.90
8633;DHT22;4354;49.832;10.746;2023-03-01T01:15:12;-3.70;99.90
8633;DHT22;4354;49.832;10.746;2023-03-01T01:17:40;-3.70;99.90
8633;DHT22;4354;49.832;10.746;2023-03-01T01:20:08;-3.60;99.90
8633;DHT22;4354;49.832;10.746;2023-03-01T01:22:35;-3.60;99.90
8633;DHT22;4354;49.832;10.746;2023-03-01T01:25:01;-3.70;99.90
8633;DHT22;4354;49.832;10.746;2023-03-01T01:27:29;-3.60;99.90
8633;DHT22;4354;49.832;10.746;2023-03-01T01:29:56;-3.60;99.90
8633;DHT22;4354;49.832;10.746;2023-03-01T01:32:23;-3.50;99.90
8633;DHT22;4354;49.832;10.746;2023-03-01T01:34:52;-3.60;99.90
8633;DHT22;4354;49.832;10.746;2023-03-01T01:37:19;-3.50;99.90
8633;DHT22;4354;49.832;10.746;2023-03-01T01:39:46;-3.50;99.90
8633;DHT22;4354;49.832;10.746;2023-03-01T01:42:16;-3.40;99.90
8633;DHT22;4354;49.832;10.746;2023-03-01T01:44:46;-3.40;99.90
8633;DHT22;4354;49.832;10.746;2023-03-01T01:47:17;-3.40;99.90
8633;DHT22;4354;49.832;10.746;2023-03-01T01:49:53;-3.40;99.90
8633;DHT22;4354;49.832;10.746;2023-03-01T01:52:25;-3.40;99.90
8633;DHT22;4354;49.832;10.746;2023-03-01T01:55:03;-3.40;99.90
8633;DHT22;4354;49.832;10.746;2023-03-01T01:57:46;-3.40;99.90
8633;DHT22;4354;49.832;10.746;2023-03-01T02:00:22;-3.40;99.90
8633;DHT22;4354;49.832;10.746;2023-03-01T02:02:54;-3.50;99.90
8633;DHT22;4354;49.832;10.746;2023-03-01T02:08:03;-3.50;99.90
8633;DHT22;4354;49.832;10.746;2023-03-01T02:10:32;-3.50;99.90
8633;DHT22;4354;49.832;10.746;2023-03-01T02:13:03;-3.60;99.90
8633;DHT22;4354;49.832;10.746;2023-03-01T02:15:37;-3.60;99.90
8633;DHT22;4354;49.832;10.746;2023-03-01T02:18:05;-3.70;99.90
8633;DHT22;4354;49.832;10.746;2023-03-01T02:23:31;-3.80;99.90
8633;DHT22;4354;49.832;10.746;2023-03-01T02:28:42;-3.80;99.90
8633;DHT22;4354;49.832;10.746;2023-03-01T02:31:15;-3.80;99.90
8633;DHT22;4354;49.832;10.746;2023-03-01T02:34:01;-3.80;99.90
8633;DHT22;4354;49.832;10.746;2023-03-01T02:36:35;-3.90;99.90
8633;DHT22;4354;49.832;10.746;2023-03-01T02:39:05;-3.90;99.90
8633;DHT22;4354;49.832;10.746;2023-03-01T02:41:36;-3.90;99.90
8633;DHT22;4354;49.832;10.746;2023-03-01T02:44:04;-3.90;99.90
8633;DHT22;4354;49.832;10.746;2023-03-01T02:46:31;-3.90;99.90
8633;DHT22;4354;49.832;10.746;2023-03-01T02:48:59;-3.90;99.90
8633;DHT22;4354;49.832;10.746;2023-03-01T02:52:09;-3.90;99.90
8633;DHT22;4354;49.832;10.746;2023-03-01T02:55:03;-3.90;99.90
8633;DHT22;4354;49.832;10.746;2023-03-01T02:57:34;-3.90;99.90
8633;DHT22;4354;49.832;10.746;2023-03-01T03:00:08;-3.90;99.90
8633;DHT22;4354;49.832;10.746;2023-03-01T03:02:36;-3.90;99.90
8633;DHT22;4354;49.832;10.746;2023-03-01T03:07:34;-3.70;99.90
8633;DHT22;4354;49.832;10.746;2023-03-01T03:10:02;-4.10;99.90
8633;DHT22;4354;49.832;10.746;2023-03-01T03:12:29;-4.10;99.90
8633;DHT22;4354;49.832;10.746;2023-03-01T03:14:56;-4.10;99.90
8633;DHT22;4354;49.832;10.746;2023-03-01T03:17:23;-4.10;99.90
8633;DHT22;4354;49.832;10.746;2023-03-01T03:19:50;-4.10;99.90
8633;DHT22;4354;49.832;10.746;2023-03-01T03:22:16;-4.20;99.90
8633;DHT22;4354;49.832;10.746;2023-03-01T03:24:43;-4.20;99.90
8633;DHT22;4354;49.832;10.746;2023-03-01T03:27:10;-4.20;99.90
8633;DHT22;4354;49.832;10.746;2023-03-01T03:29:37;-4.30;99.90
8633;DHT22;4354;49.832;10.746;2023-03-01T03:32:03;-4.30;99.90
8633;DHT22;4354;49.832;10.746;2023-03-01T03:34:30;-4.30;99.90
8633;DHT22;4354;49.832;10.746;2023-03-01T03:36:57;-4.30;99.90
8633;DHT22;4354;49.832;10.746;2023-03-01T03:39:26;-4.30;99.90
8633;DHT22;4354;49.832;10.746;2023-03-01T03:41:53;-4.30;99.90
8633;DHT22;4354;49.832;10.746;2023-03-01T03:44:21;-4.40;99.90
8633;DHT22;4354;49.832;10.746;2023-03-01T03:46:48;-4.40;99.90
8633;DHT22;4354;49.832;10.746;2023-03-01T03:49:14;-4.40;99.90
8633;DHT22;4354;49.832;10.746;2023-03-01T03:51:41;-4.40;99.90
8633;DHT22;4354;49.832;10.746;2023-03-01T03:54:08;-4.40;99.90
8633;DHT22;4354;49.832;10.746;2023-03-01T03:56:34;-4.40;99.90
8633;DHT22;4354;49.832;10.746;2023-03-01T03:59:01;-4.50;99.90
8633;DHT22;4354;49.832;10.746;2023-03-01T04:01:28;-4.50;99.90
8633;DHT22;4354;49.832;10.746;2023-03-01T04:03:55;-4.50;99.90
8633;DHT22;4354;49.832;10.746;2023-03-01T04:06:22;-4.50;99.90
8633;DHT22;4354;49.832;10.746;2023-03-01T04:08:48;-4.50;99.90
8633;DHT22;4354;49.832;10.746;2023-03-01T04:11:17;-4.50;99.90
8633;DHT22;4354;49.832;10.746;2023-03-01T04:13:56;-4.50;99.90
8633;DHT22;4354;49.832;10.746;2023-03-01T04:16:23;-4.50;99.90
8633;DHT22;4354;49.832;10.746;2023-03-01T04:18:51;-4.60;99.90
8633;DHT22;4354;49.832;10.746;2023-03-01T04:21:20;-4.60;99.90
8633;DHT22;4354;49.832;10.746;2023-03-01T04:23:46;-4.60;99.90
8633;DHT22;4354;49.832;10.746;2023-03-01T04:26:13;-4.60;99.90
8633;DHT22;4354;49.832;10.746;2023-03-01T04:28:41;-4.60;99.90
8633;DHT22;4354;49.832;10.746;2023-03-01T04:31:14;-4.70;99.90
8633;DHT22;4354;49.832;10.746;2023-03-01T04:36:11;-4.60;99.90
8633;DHT22;4354;49.832;10.746;2023-03-01T04:38:39;-4.60;99.90
8633;DHT22;4354;49.832;10.746;2023-03-01T04:41:08;-4.60;99.90
8633;DHT22;4354;49.832;10.746;2023-03-01T04:43:35;-4.50;99.90
8633;DHT22;4354;49.832;10.746;2023-03-01T04:46:07;-4.50;99.90
8633;DHT22;4354;49.832;10.746;2023-03-01T04:48:36;-4.40;99.90
8633;DHT22;4354;49.832;10.746;2023-03-01T04:51:04;-4.30;99.90
8633;DHT22;4354;49.832;10.746;2023-03-01T04:53:32;-4.30;99.90
8633;DHT22;4354;49.832;10.746;2023-03-01T04:55:59;-4.20;99.90
8633;DHT22;4354;49.832;10.746;2023-03-01T04:58:27;-4.20;99.90
8633;DHT22;4354;49.832;10.746;2023-03-01T05:00:54;-4.20;99.90
8633;DHT22;4354;49.832;10.746;2023-03-01T05:03:26;-4.20;99.90
8633;DHT22;4354;49.832;10.746;2023-03-01T05:05:53;-4.20;99.90
8633;DHT22;4354;49.832;10.746;2023-03-01T05:08:20;-4.10;99.90
8633;DHT22;4354;49.832;10.746;2023-03-01T05:10:52;-4.10;99.90
8633;DHT22;4354;49.832;10.746;2023-03-01T05:13:20;-4.20;99.90
8633;DHT22;4354;49.832;10.746;2023-03-01T05:15:59;-4.20;99.90
8633;DHT22;4354;49.832;10.746;2023-03-01T05:18:27;-4.20;99.90
8633;DHT22;4354;49.832;10.746;2023-03-01T05:20:56;-4.20;99.90
8633;DHT22;4354;49.832;10.746;2023-03-01T05:23:25;-4.30;99.90
8633;DHT22;4354;49.832;10.746;2023-03-01T05:25:51;-4.30;99.90
8633;DHT22;4354;49.832;10.746;2023-03-01T05:28:19;-4.30;99.90
8633;DHT22;4354;49.832;10.746;2023-03-01T05:30:47;-4.30;99.90
8633;DHT22;4354;49.832;10.746;2023-03-01T05:33:13;-4.40;99.90
8633;DHT22;4354;49.832;10.746;2023-03-01T05:35:42;-4.40;99.90
8633;DHT22;4354;49.832;10.746;2023-03-01T05:38:10;-4.40;99.90
8633;DHT22;4354;49.832;10.746;2023-03-01T05:40:44;-4.40;99.90
8633;DHT22;4354;49.832;10.746;2023-03-01T05:43:12;-4.40;99.90
8633;DHT22;4354;49.832;10.746;2023-03-01T05:45:39;-4.50;99.90
8633;DHT22;4354;49.832;10.746;2023-03-01T05:48:07;-4.50;99.90
8633;DHT22;4354;49.832;10.746;2023-03-01T05:50:42;-4.50;99.90
8633;DHT22;4354;49.832;10.746;2023-03-01T05:53:10;-4.50;99.90
8633;DHT22;4354;49.832;10.746;2023-03-01T05:55:38;-4.60;99.90
8633;DHT22;4354;49.832;10.746;2023-03-01T05:58:10;-4.50;99.90
8633;DHT22;4354;49.832;10.746;2023-03-01T06:00:38;-4.50;99.90
8633;DHT22;4354;49.832;10.746;2023-03-01T06:03:05;-4.60;99.90
8633;DHT22;4354;49.832;10.746;2023-03-01T06:05:32;-4.60;99.90
8633;DHT22;4354;49.832;10.746;2023-03-01T06:10:38;-4.60;99.90
8633;DHT22;4354;49.832;10.746;2023-03-01T06:13:05;-4.60;99.90
8633;DHT22;4354;49.832;10.746;2023-03-01T06:15:32;-4.50;99.90
8633;DHT22;4354;49.832;10.746;2023-03-01T06:17:59;-4.50;99.90
8633;DHT22;4354;49.832;10.746;2023-03-01T06:20:28;-4.40;99.90
8633;DHT22;4354;49.832;10.746;2023-03-01T06:22:55;-4.30;99.90
8633;DHT22;4354;49.832;10.746;2023-03-01T06:25:25;-4.10;99.90
8633;DHT22;4354;49.832;10.746;2023-03-01T06:27:52;-4.00;99.90
8633;DHT22;4354;49.832;10.746;2023-03-01T06:30:20;-4.00;99.90
8633;DHT22;4354;49.832;10.746;2023-03-01T06:32:48;-3.90;99.90
8633;DHT22;4354;49.832;10.746;2023-03-01T06:35:16;-3.80;99.90
8633;DHT22;4354;49.832;10.746;2023-03-01T06:37:47;-3.80;99.90
8633;DHT22;4354;49.832;10.746;2023-03-01T06:40:15;-3.60;99.90
8633;DHT22;4354;49.832;10.746;2023-03-01T06:42:43;-3.50;99.90
8633;DHT22;4354;49.832;10.746;2023-03-01T06:45:11;-3.50;99.90
8633;DHT22;4354;49.832;10.746;2023-03-01T06:47:38;-3.40;99.90
8633;DHT22;4354;49.832;10.746;2023-03-01T06:50:05;-3.30;99.90
8633;DHT22;4354;49.832;10.746;2023-03-01T06:52:32;-3.10;99.90
8633;DHT22;4354;49.832;10.746;2023-03-01T06:54:59;-3.00;99.90
8633;DHT22;4354;49.832;10.746;2023-03-01T06:57:27;-2.90;99.90
8633;DHT22;4354;49.832;10.746;2023-03-01T06:59:54;-2.80;99.90
8633;DHT22;4354;49.832;10.746;2023-03-01T07:02:21;-2.60;99.90
8633;DHT22;4354;49.832;10.746;2023-03-01T07:04:51;-2.50;99.90
8633;DHT22;4354;49.832;10.746;2023-03-01T07:07:19;-2.30;99.90
8633;DHT22;4354;49.832;10.746;2023-03-01T07:09:46;-2.20;99.90
8633;DHT22;4354;49.832;10.746;2023-03-01T07:12:13;-2.00;99.90
8633;DHT22;4354;49.832;10.746;2023-03-01T07:14:40;-1.90;99.90
8633;DHT22;4354;49.832;10.746;2023-03-01T07:17:07;-1.70;99.90
8633;DHT22;4354;49.832;10.746;2023-03-01T07:19:34;-1.60;99.90
8633;DHT22;4354;49.832;10.746;2023-03-01T07:22:01;-1.40;99.90
8633;DHT22;4354;49.832;10.746;2023-03-01T07:24:28;-1.20;99.90
8633;DHT22;4354;49.832;10.746;2023-03-01T07:26:55;-1.00;99.90
8633;DHT22;4354;49.832;10.746;2023-03-01T07:29:22;-0.90;99.90
8633;DHT22;4354;49.832;10.746;2023-03-01T07:31:49;-0.70;99.90
8633;DHT22;4354;49.832;10.746;2023-03-01T07:34:15;-0.50;99.90
8633;DHT22;4354;49.832;10.746;2023-03-01T07:36:42;-0.30;99.90
8633;DHT22;4354;49.832;10.746;2023-03-01T07:39:11;-0.10;99.90
8633;DHT22;4354;49.832;10.746;2023-03-01T07:41:38;0.10;99.90
8633;DHT22;4354;49.832;10.746;2023-03-01T07:44:06;0.20;99.90
8633;DHT22;4354;49.832;10.746;2023-03-01T07:46:33;0.50;99.90
8633;DHT22;4354;49.832;10.746;2023-03-01T07:49:00;1.40;99.90
8633;DHT22;4354;49.832;10.746;2023-03-01T07:51:27;3.00;99.90
8633;DHT22;4354;49.832;10.746;2023-03-01T07:53:53;4.90;99.90
8633;DHT22;4354;49.832;10.746;2023-03-01T07:58:48;8.40;98.90
8633;DHT22;4354;49.832;10.746;2023-03-01T08:03:45;10.80;82.70
8633;DHT22;4354;49.832;10.746;2023-03-01T08:06:14;10.90;76.10
8633;DHT22;4354;49.832;10.746;2023-03-01T08:08:41;11.30;72.60
8633;DHT22;4354;49.832;10.746;2023-03-01T08:11:10;10.70;71.60
8633;DHT22;4354;49.832;10.746;2023-03-01T08:13:38;11.40;69.80
8633;DHT22;4354;49.832;10.746;2023-03-01T08:16:15;12.00;66.70
8633;DHT22;4354;49.832;10.746;2023-03-01T08:18:43;13.90;63.60
8633;DHT22;4354;49.832;10.746;2023-03-01T08:21:12;14.50;60.30
8633;DHT22;4354;49.832;10.746;2023-03-01T08:23:40;15.90;55.30
8633;DHT22;4354;49.832;10.746;2023-03-01T08:26:18;15.70;53.70
8633;DHT22;4354;49.832;10.746;2023-03-01T08:28:47;16.20;51.60
8633;DHT22;4354;49.832;10.746;2023-03-01T08:31:22;16.80;50.70
8633;DHT22;4354;49.832;10.746;2023-03-01T08:33:50;17.70;46.30
8633;DHT22;4354;49.832;10.746;2023-03-01T08:36:27;17.10;46.60
8633;DHT22;4354;49.832;10.746;2023-03-01T08:38:54;17.30;47.10
8633;DHT22;4354;49.832;10.746;2023-03-01T08:41:21;17.30;46.00
8633;DHT22;4354;49.832;10.746;2023-03-01T08:43:49;18.10;45.00
8633;DHT22;4354;49.832;10.746;2023-03-01T08:46:16;17.90;44.60
8633;DHT22;4354;49.832;10.746;2023-03-01T08:48:43;19.60;42.30
8633;DHT22;4354;49.832;10.746;2023-03-01T08:51:12;20.30;40.80
8633;DHT22;4354;49.832;10.746;2023-03-01T08:53:40;20.20;40.60
8633;DHT22;4354;49.832;10.746;2023-03-01T08:56:07;20.40;39.40
8633;DHT22;4354;49.832;10.746;2023-03-01T08:58:35;19.80;39.60
8633;DHT22;4354;49.832;10.746;2023-03-01T09:01:11;20.10;39.00
8633;DHT22;4354;49.832;10.746;2023-03-01T09:03:38;20.20;38.20
8633;DHT22;4354;49.832;10.746;2023-03-01T09:06:06;20.30;38.00
8633;DHT22;4354;49.832;10.746;2023-03-01T09:08:36;20.30;37.80
8633;DHT22;4354;49.832;10.746;2023-03-01T09:11:04;20.00;38.00
8633;DHT22;4354;49.832;10.746;2023-03-01T09:13:32;20.80;38.60
8633;DHT22;4354;49.832;10.746;2023-03-01T09:16:02;20.50;37.80
8633;DHT22;4354;49.832;10.746;2023-03-01T09:18:29;20.70;37.00
8633;DHT22;4354;49.832;10.746;2023-03-01T09:21:04;21.50;37.00
8633;DHT22;4354;49.832;10.746;2023-03-01T09:23:35;20.30;37.50
8633;DHT22;4354;49.832;10.746;2023-03-01T09:26:06;21.00;37.30
8633;DHT22;4354;49.832;10.746;2023-03-01T09:28:36;21.50;36.60
8633;DHT22;4354;49.832;10.746;2023-03-01T09:31:03;20.70;36.50
8633;DHT22;4354;49.832;10.746;2023-03-01T09:33:32;21.40;37.00
8633;DHT22;4354;49.832;10.746;2023-03-01T09:36:03;21.50;36.30
8633;DHT22;4354;49.832;10.746;2023-03-01T09:38:31;21.60;36.60
8633;DHT22;4354;49.832;10.746;2023-03-01T09:40:59;21.60;36.20
8633;DHT22;4354;49.832;10.746;2023-03-01T09:46:10;20.90;36.40
8633;DHT22;4354;49.832;10.746;2023-03-01T09:49:00;21.90;35.40
8633;DHT22;4354;49.832;10.746;2023-03-01T09:51:33;21.90;35.10
8633;DHT22;4354;49.832;10.746;2023-03-01T09:54:02;22.10;35.40
8633;DHT22;4354;49.832;10.746;2023-03-01T10:04:44;23.20;33.10
8633;DHT22;4354;49.832;10.746;2023-03-01T10:09:42;23.60;32.20
8633;DHT22;4354;49.832;10.746;2023-03-01T10:12:15;23.00;32.60
8633;DHT22;4354;49.832;10.746;2023-03-01T10:17:51;21.70;34.30
8633;DHT22;4354;49.832;10.746;2023-03-01T10:20:29;22.60;32.80
8633;DHT22;4354;49.832;10.746;2023-03-01T10:23:00;22.40;33.80
8633;DHT22;4354;49.832;10.746;2023-03-01T10:28:17;22.10;33.70
8633;DHT22;4354;49.832;10.746;2023-03-01T10:30:46;22.30;33.10
8633;DHT22;4354;49.832;10.746;2023-03-01T10:33:35;22.60;33.20
8633;DHT22;4354;49.832;10.746;2023-03-01T10:36:03;22.90;32.50
8633;DHT22;4354;49.832;10.746;2023-03-01T10:38:33;23.10;32.30
8633;DHT22;4354;49.832;10.746;2023-03-01T10:41:13;22.90;32.20
8633;DHT22;4354;49.832;10.746;2023-03-01T10:43:55;22.90;33.40
8633;DHT22;4354;49.832;10.746;2023-03-01T10:46:35;22.70;32.70
8633;DHT22;4354;49.832;10.746;2023-03-01T10:49:23;24.00;32.20
8633;DHT22;4354;49.832;10.746;2023-03-01T10:51:53;24.20;31.70
8633;DHT22;4354;49.832;10.746;2023-03-01T10:54:31;24.50;32.00
8633;DHT22;4354;49.832;10.746;2023-03-01T10:57:04;23.60;31.60
8633;DHT22;4354;49.832;10.746;2023-03-01T10:59:36;23.30;32.00
8633;DHT22;4354;49.832;10.746;2023-03-01T11:07:56;22.70;31.60
8633;DHT22;4354;49.832;10.746;2023-03-01T11:10:31;21.70;32.90
8633;DHT22;4354;49.832;10.746;2023-03-01T11:13:16;21.00;33.50
8633;DHT22;4354;49.832;10.746;2023-03-01T11:16:01;21.00;33.60
8633;DHT22;4354;49.832;10.746;2023-03-01T11:18:30;21.10;33.80
8633;DHT22;4354;49.832;10.746;2023-03-01T11:21:13;20.80;32.70
8633;DHT22;4354;49.832;10.746;2023-03-01T11:23:43;19.80;34.20
8633;DHT22;4354;49.832;10.746;2023-03-01T11:26:12;19.40;33.50
8633;DHT22;4354;49.832;10.746;2023-03-01T11:28:42;18.70;35.00
8633;DHT22;4354;49.832;10.746;2023-03-01T11:31:11;18.20;35.40
8633;DHT22;4354;49.832;10.746;2023-03-01T11:33:59;17.80;36.10
8633;DHT22;4354;49.832;10.746;2023-03-01T11:39:03;17.70;35.40
8633;DHT22;4354;49.832;10.746;2023-03-01T11:41:34;17.00;36.60
8633;DHT22;4354;49.832;10.746;2023-03-01T11:44:16;17.20;36.70
8633;DHT22;4354;49.832;10.746;2023-03-01T11:47:05;16.80;37.60
8633;DHT22;4354;49.832;10.746;2023-03-01T12:19:11;15.50;39.10
8633;DHT22;4354;49.832;10.746;2023-03-01T12:21:21;15.20;40.20
8633;DHT22;4354;49.832;10.746;2023-03-01T12:26:40;15.20;40.30
8633;DHT22;4354;49.832;10.746;2023-03-01T12:42:38;14.60;41.20
8633;DHT22;4354;49.832;10.746;2023-03-01T12:48:05;14.20;41.20
8633;DHT22;4354;49.832;10.746;2023-03-01T12:50:47;14.00;41.80
8633;DHT22;4354;49.832;10.746;2023-03-01T12:53:26;14.10;42.30
8633;DHT22;4354;49.832;10.746;2023-03-01T12:56:02;13.70;43.10
8633;DHT22;4354;49.832;10.746;2023-03-01T12:58:44;13.20;43.10
8633;DHT22;4354;49.832;10.746;2023-03-01T13:06:53;12.80;44.70
8633;DHT22;4354;49.832;10.746;2023-03-01T13:09:41;12.60;44.90
8633;DHT22;4354;49.832;10.746;2023-03-01T13:17:54;12.40;45.30
8633;DHT22;4354;49.832;10.746;2023-03-01T13:23:06;12.80;45.10
8633;DHT22;4354;49.832;10.746;2023-03-01T13:25:34;12.70;45.00
8633;DHT22;4354;49.832;10.746;2023-03-01T13:34:01;12.60;45.20
8633;DHT22;4354;49.832;10.746;2023-03-01T13:39:18;12.60;46.20
8633;DHT22;4354;49.832;10.746;2023-03-01T13:41:54;12.50;45.50
8633;DHT22;4354;49.832;10.746;2023-03-01T13:44:37;12.10;46.00
8633;DHT22;4354;49.832;10.746;2023-03-01T13:49:47;11.60;47.20
8633;DHT22;4354;49.832;10.746;2023-03-01T13:52:43;11.70;47.20
8633;DHT22;4354;49.832;10.746;2023-03-01T13:55:41;11.70;47.10
8633;DHT22;4354;49.832;10.746;2023-03-01T14:00:46;11.40;47.80
8633;DHT22;4354;49.832;10.746;2023-03-01T14:03:18;11.00;47.60
8633;DHT22;4354;49.832;10.746;2023-03-01T14:08:46;10.80;48.90
8633;DHT22;4354;49.832;10.746;2023-03-01T14:11:48;10.60;49.40
8633;DHT22;4354;49.832;10.746;2023-03-01T14:14:44;10.40;49.60
8633;DHT22;4354;49.832;10.746;2023-03-01T14:19:53;10.10;49.90
8633;DHT22;4354;49.832;10.746;2023-03-01T14:22:34;10.00;50.40
8633;DHT22;4354;49.832;10.746;2023-03-01T14:25:06;10.00;50.20
8633;DHT22;4354;49.832;10.746;2023-03-01T14:27:43;9.90;51.60
8633;DHT22;4354;49.832;10.746;2023-03-01T14:30:22;9.70;52.20
8633;DHT22;4354;49.832;10.746;2023-03-01T14:32:58;9.80;52.10
8633;DHT22;4354;49.832;10.746;2023-03-01T14:35:28;9.50;52.30
8633;DHT22;4354;49.832;10.746;2023-03-01T14:37:56;9.50;52.90
8633;DHT22;4354;49.832;10.746;2023-03-01T14:40:28;9.30;52.70
8633;DHT22;4354;49.832;10.746;2023-03-01T14:42:59;9.30;53.40
8633;DHT22;4354;49.832;10.746;2023-03-01T14:45:27;9.30;53.80
8633;DHT22;4354;49.832;10.746;2023-03-01T14:47:59;9.20;53.80
8633;DHT22;4354;49.832;10.746;2023-03-01T14:50:29;9.10;53.40
8633;DHT22;4354;49.832;10.746;2023-03-01T14:53:02;9.00;53.50
8633;DHT22;4354;49.832;10.746;2023-03-01T14:55:38;9.00;54.30
8633;DHT22;4354;49.832;10.746;2023-03-01T14:58:18;9.00;54.40
8633;DHT22;4354;49.832;10.746;2023-03-01T15:00:57;9.00;54.40
8633;DHT22;4354;49.832;10.746;2023-03-01T15:03:42;9.00;54.70
8633;DHT22;4354;49.832;10.746;2023-03-01T15:06:18;9.10;54.40
8633;DHT22;4354;49.832;10.746;2023-03-01T15:08:48;9.00;54.80
8633;DHT22;4354;49.832;10.746;2023-03-01T15:13:49;8.80;54.90
8633;DHT22;4354;49.832;10.746;2023-03-01T15:16:26;8.70;55.10
8633;DHT22;4354;49.832;10.746;2023-03-01T15:21:27;8.50;55.80
8633;DHT22;4354;49.832;10.746;2023-03-01T15:24:05;8.40;55.90
8633;DHT22;4354;49.832;10.746;2023-03-01T15:26:42;8.30;56.40
8633;DHT22;4354;49.832;10.746;2023-03-01T15:29:36;8.20;57.10
8633;DHT22;4354;49.832;10.746;2023-03-01T15:32:29;8.10;56.80
8633;DHT22;4354;49.832;10.746;2023-03-01T15:34:58;8.00;57.00
8633;DHT22;4354;49.832;10.746;2023-03-01T15:37:44;8.00;57.30
8633;DHT22;4354;49.832;10.746;2023-03-01T15:40:26;7.90;57.60
8633;DHT22;4354;49.832;10.746;2023-03-01T15:43:05;7.80;58.20
8633;DHT22;4354;49.832;10.746;2023-03-01T15:45:33;7.70;58.20
8633;DHT22;4354;49.832;10.746;2023-03-01T15:48:14;7.70;58.40
8633;DHT22;4354;49.832;10.746;2023-03-01T15:50:43;7.50;58.80
8633;DHT22;4354;49.832;10.746;2023-03-01T15:53:13;7.50;58.80
8633;DHT22;4354;49.832;10.746;2023-03-01T15:55:41;7.40;58.70
8633;DHT22;4354;49.832;10.746;2023-03-01T15:58:24;7.40;59.30
8633;DHT22;4354;49.832;10.746;2023-03-01T16:00:52;7.30;59.40
8633;DHT22;4354;49.832;10.746;2023-03-01T16:03:28;7.30;59.50
8633;DHT22;4354;49.832;10.746;2023-03-01T16:05:55;7.20;60.00
8633;DHT22;4354;49.832;10.746;2023-03-01T16:08:22;7.20;60.40
8633;DHT22;4354;49.832;10.746;2023-03-01T16:10:50;7.10;60.30
8633;DHT22;4354;49.832;10.746;2023-03-01T16:13:18;7.00;60.60
8633;DHT22;4354;49.832;10.746;2023-03-01T16:15:45;7.00;60.60
8633;DHT22;4354;49.832;10.746;2023-03-01T16:18:12;6.90;61.10
8633;DHT22;4354;49.832;10.746;2023-03-01T16:20:39;6.70;61.30
8633;DHT22;4354;49.832;10.746;2023-03-01T16:23:08;6.70;61.70
8633;DHT22;4354;49.832;10.746;2023-03-01T16:25:36;6.60;62.50
8633;DHT22;4354;49.832;10.746;2023-03-01T16:28:04;6.50;62.60
8633;DHT22;4354;49.832;10.746;2023-03-01T16:30:37;6.40;63.00
8633;DHT22;4354;49.832;10.746;2023-03-01T16:33:04;6.20;63.60
8633;DHT22;4354;49.832;10.746;2023-03-01T16:35:53;6.10;64.00
8633;DHT22;4354;49.832;10.746;2023-03-01T16:38:20;6.00;64.60
8633;DHT22;4354;49.832;10.746;2023-03-01T16:40:48;5.90;65.30
8633;DHT22;4354;49.832;10.746;2023-03-01T16:43:16;5.80;65.70
8633;DHT22;4354;49.832;10.746;2023-03-01T16:45:42;5.80;66.60
8633;DHT22;4354;49.832;10.746;2023-03-01T16:48:11;5.70;66.50
8633;DHT22;4354;49.832;10.746;2023-03-01T16:50:39;5.60;67.00
8633;DHT22;4354;49.832;10.746;2023-03-01T16:53:06;5.50;67.80
8633;DHT22;4354;49.832;10.746;2023-03-01T16:55:32;5.40;68.00
8633;DHT22;4354;49.832;10.746;2023-03-01T16:58:00;5.30;68.70
8633;DHT22;4354;49.832;10.746;2023-03-01T17:00:27;5.20;69.90
8633;DHT22;4354;49.832;10.746;2023-03-01T17:02:54;5.10;70.40
8633;DHT22;4354;49.832;10.746;2023-03-01T17:05:22;5.00;90.20
8633;DHT22;4354;49.832;10.746;2023-03-01T17:07:51;5.00;72.20
8633;DHT22;4354;49.832;10.746;2023-03-01T17:10:18;4.80;73.20
8633;DHT22;4354;49.832;10.746;2023-03-01T17:12:48;4.70;74.00
8633;DHT22;4354;49.832;10.746;2023-03-01T17:15:16;4.60;75.20
8633;DHT22;4354;49.832;10.746;2023-03-01T17:17:43;4.50;76.60
8633;DHT22;4354;49.832;10.746;2023-03-01T17:20:10;4.40;77.70
8633;DHT22;4354;49.832;10.746;2023-03-01T17:22:37;4.40;80.10
8633;DHT22;4354;49.832;10.746;2023-03-01T17:25:06;4.30;82.90
8633;DHT22;4354;49.832;10.746;2023-03-01T17:27:33;4.10;84.30
8633;DHT22;4354;49.832;10.746;2023-03-01T17:30:02;4.00;85.50
8633;DHT22;4354;49.832;10.746;2023-03-01T17:32:29;3.90;89.40
8633;DHT22;4354;49.832;10.746;2023-03-01T17:34:56;3.70;91.30
8633;DHT22;4354;49.832;10.746;2023-03-01T17:37:23;3.60;93.80
8633;DHT22;4354;49.832;10.746;2023-03-01T17:39:50;3.60;96.80
8633;DHT22;4354;49.832;10.746;2023-03-01T17:42:17;3.50;98.90
8633;DHT22;4354;49.832;10.746;2023-03-01T17:44:45;3.50;99.90
8633;DHT22;4354;49.832;10.746;2023-03-01T17:47:11;3.30;99.90
8633;DHT22;4354;49.832;10.746;2023-03-01T17:49:38;3.20;99.90
8633;DHT22;4354;49.832;10.746;2023-03-01T17:52:05;3.10;99.90
8633;DHT22;4354;49.832;10.746;2023-03-01T17:54:33;3.10;99.90
8633;DHT22;4354;49.832;10.746;2023-03-01T17:57:00;2.90;99.90
8633;DHT22;4354;49.832;10.746;2023-03-01T17:59:27;2.90;99.90
8633;DHT22;4354;49.832;10.746;2023-03-01T18:01:58;2.80;99.90
8633;DHT22;4354;49.832;10.746;2023-03-01T18:04:27;2.70;99.90
8633;DHT22;4354;49.832;10.746;2023-03-01T18:06:54;2.70;99.90
8633;DHT22;4354;49.832;10.746;2023-03-01T18:09:21;2.60;99.90
8633;DHT22;4354;49.832;10.746;2023-03-01T18:11:48;2.60;99.90
8633;DHT22;4354;49.832;10.746;2023-03-01T18:14:15;2.50;99.90
8633;DHT22;4354;49.832;10.746;2023-03-01T18:16:42;2.50;99.90
8633;DHT22;4354;49.832;10.746;2023-03-01T18:19:10;2.60;99.90
8633;DHT22;4354;49.832;10.746;2023-03-01T18:21:37;2.50;99.90
8633;DHT22;4354;49.832;10.746;2023-03-01T18:24:05;2.50;99.90
8633;DHT22;4354;49.832;10.746;2023-03-01T18:26:31;2.50;99.90
8633;DHT22;4354;49.832;10.746;2023-03-01T18:28:59;2.50;99.90
8633;DHT22;4354;49.832;10.746;2023-03-01T18:31:30;2.40;99.90